sensor_id;sensor_type;location;lat;lon;timestamp;temperature;humidity
27540;DHT22;15906;52.046;4.724;2024-03-06T00:02:05;7.00;99.90
27540;DHT22;15906;52.046;4.724;2024-03-06T00:04:30;7.00;99.90
27540;DHT22;15906;52.046;4.724;2024-03-06T00:06:56;7.00;99.90
27540;DHT22;15906;52.046;4.724;2024-03-06T00:09:23;7.00;99.90
27540;DHT22;15906;52.046;4.724;2024-03-06T00:11:49;7.00;99.90
27540;DHT22;15906;52.046;4.724;2024-03-06T00:14:16;7.00;99.90
27540;DHT22;15906;52.046;4.724;2024-03-06T00:16:42;7.00;99.90
27540;DHT22;15906;52.046;4.724;2024-03-06T00:19:08;7.00;99.90
27540;DHT22;15906;52.046;4.724;2024-03-06T00:21:34;7.00;99.90
27540;DHT22;15906;52.046;4.724;2024-03-06T00:24:02;7.10;99.90
27540;DHT22;15906;52.046;4.724;2024-03-06T00:26:27;7.10;99.90
27540;DHT22;15906;52.046;4.724;2024-03-06T00:28:53;7.10;99.90
27540;DHT22;15906;52.046;4.724;2024-03-06T00:31:18;7.10;99.90
27540;DHT22;15906;52.046;4.724;2024-03-06T00:33:44;7.10;99.90
27540;DHT22;15906;52.046;4.724;2024-03-06T00:36:09;7.10;99.90
27540;DHT22;15906;52.046;4.724;2024-03-06T00:38:35;7.10;99.90
27540;DHT22;15906;52.046;4.724;2024-03-06T00:41:00;7.10;99.90
27540;DHT22;15906;52.046;4.724;2024-03-06T00:43:26;7.00;99.90
27540;DHT22;15906;52.046;4.724;2024-03-06T00:45:51;7.00;99.90
27540;DHT22;15906;52.046;4.724;2024-03-06T00:48:17;7.00;99.90
27540;DHT22;15906;52.046;4.724;2024-03-06T00:50:45;7.00;99.90
27540;DHT22;15906;52.046;4.724;2024-03-06T00:53:11;7.00;99.90
27540;DHT22;15906;52.046;4.724;2024-03-06T00:55:36;7.00;99.90
27540;DHT22;15906;52.046;4.724;2024-03-06T00:58:02;7.00;99.90
27540;DHT22;15906;52.046;4.724;2024-03-06T01:00:29;7.00;99.90
27540;DHT22;15906;52.046;4.724;2024-03-06T01:02:54;7.00;99.90
27540;DHT22;15906;52.046;4.724;2024-03-06T01:05:20;7.00;99.90
27540;DHT22;15906;52.046;4.724;2024-03-06T01:07:45;7.00;99.90
27540;DHT22;15906;52.046;4.724;2024-03-06T01:10:11;7.10;99.90
27540;DHT22;15906;52.046;4.724;2024-03-06T01:12:36;7.00;99.90
27540;DHT22;15906;52.046;4.724;2024-03-06T01:15:02;7.10;99.90
27540;DHT22;15906;52.046;4.724;2024-03-06T01:17:29;7.10;99.90
27540;DHT22;15906;52.046;4.724;2024-03-06T01:19:54;7.00;99.90
27540;DHT22;15906;52.046;4.724;2024-03-06T01:22:20;7.00;99.90
27540;DHT22;15906;52.046;4.724;2024-03-06T01:24:46;7.00;99.90
27540;DHT22;15906;52.046;4.724;2024-03-06T01:27:17;7.00;99.90
27540;DHT22;15906;52.046;4.724;2024-03-06T01:29:42;7.10;99.90
27540;DHT22;15906;52.046;4.724;2024-03-06T01:32:08;7.00;99.90
27540;DHT22;15906;52.046;4.724;2024-03-06T01:34:35;7.10;99.90
27540;DHT22;15906;52.046;4.724;2024-03-06T01:37:01;7.00;99.90
27540;DHT22;15906;52.046;4.724;2024-03-06T01:39:26;7.00;99.90
27540;DHT22;15906;52.046;4.724;2024-03-06T01:41:52;7.00;99.90
27540;DHT22;15906;52.046;4.724;2024-03-06T01:44:18;7.00;99.90
27540;DHT22;15906;52.046;4.724;2024-03-06T01:46:44;7.00;99.90
27540;DHT22;15906;52.046;4.724;2024-03-06T01:49:11;7.00;99.90
27540;DHT22;15906;52.046;4.724;2024-03-06T01:51:38;7.00;99.90
27540;DHT22;15906;52.046;4.724;2024-03-06T01:54:04;7.00;99.90
27540;DHT22;15906;52.046;4.724;2024-03-06T01:56:32;7.00;99.90
27540;DHT22;15906;52.046;4.724;2024-03-06T01:58:58;7.00;99.90
27540;DHT22;15906;52.046;4.724;2024-03-06T02:01:24;6.90;99.90
27540;DHT22;15906;52.046;4.724;2024-03-06T02:03:51;6.90;99.90
27540;DHT22;15906;52.046;4.724;2024-03-06T02:06:17;6.90;99.90
27540;DHT22;15906;52.046;4.724;2024-03-06T02:08:45;6.80;99.90
27540;DHT22;15906;52.046;4.724;2024-03-06T02:11:11;6.80;99.90
27540;DHT22;15906;52.046;4.724;2024-03-06T02:13:38;6.80;99.90
27540;DHT22;15906;52.046;4.724;2024-03-06T02:16:04;6.80;99.90
27540;DHT22;15906;52.046;4.724;2024-03-06T02:18:29;6.80;99.90
27540;DHT22;15906;52.046;4.724;2024-03-06T02:20:55;6.80;99.90
27540;DHT22;15906;52.046;4.724;2024-03-06T02:23:20;6.70;99.90
27540;DHT22;15906;52.046;4.724;2024-03-06T02:25:47;6.70;99.90
27540;DHT22;15906;52.046;4.724;2024-03-06T02:28:13;6.70;99.90
27540;DHT22;15906;52.046;4.724;2024-03-06T02:30:39;6.70;99.90
27540;DHT22;15906;52.046;4.724;2024-03-06T02:33:05;6.70;99.90
27540;DHT22;15906;52.046;4.724;2024-03-06T02:35:35;6.70;99.90
27540;DHT22;15906;52.046;4.724;2024-03-06T02:38:02;6.70;99.90
27540;DHT22;15906;52.046;4.724;2024-03-06T02:40:32;6.60;99.90
27540;DHT22;15906;52.046;4.724;2024-03-06T02:42:58;6.60;99.90
27540;DHT22;15906;52.046;4.724;2024-03-06T02:45:23;6.60;99.90
27540;DHT22;15906;52.046;4.724;2024-03-06T02:47:49;6.60;99.90
27540;DHT22;15906;52.046;4.724;2024-03-06T02:50:15;6.60;99.90
27540;DHT22;15906;52.046;4.724;2024-03-06T02:52:41;6.60;99.90
27540;DHT22;15906;52.046;4.724;2024-03-06T02:55:06;6.70;99.90
27540;DHT22;15906;52.046;4.724;2024-03-06T02:57:32;6.60;99.90
27540;DHT22;15906;52.046;4.724;2024-03-06T02:59:58;6.60;99.90
27540;DHT22;15906;52.046;4.724;2024-03-06T03:02:24;6.60;99.90
27540;DHT22;15906;52.046;4.724;2024-03-06T03:04:50;6.60;99.90
27540;DHT22;15906;52.046;4.724;2024-03-06T03:07:17;6.60;99.90
27540;DHT22;15906;52.046;4.724;2024-03-06T03:09:43;6.60;99.90
27540;DHT22;15906;52.046;4.724;2024-03-06T03:12:09;6.60;99.90
27540;DHT22;15906;52.046;4.724;2024-03-06T03:14:36;6.50;99.90
27540;DHT22;15906;52.046;4.724;2024-03-06T03:17:03;6.50;99.90
27540;DHT22;15906;52.046;4.724;2024-03-06T03:19:31;6.50;99.90
27540;DHT22;15906;52.046;4.724;2024-03-06T03:21:56;6.40;99.90
27540;DHT22;15906;52.046;4.724;2024-03-06T03:24:23;6.40;99.90
27540;DHT22;15906;52.046;4.724;2024-03-06T03:26:51;6.40;99.90
27540;DHT22;15906;52.046;4.724;2024-03-06T03:29:17;6.50;99.90
27540;DHT22;15906;52.046;4.724;2024-03-06T03:31:42;6.40;99.90
27540;DHT22;15906;52.046;4.724;2024-03-06T03:34:08;6.40;99.90
27540;DHT22;15906;52.046;4.724;2024-03-06T03:36:34;6.40;99.90
27540;DHT22;15906;52.046;4.724;2024-03-06T03:39:00;6.30;99.90
27540;DHT22;15906;52.046;4.724;2024-03-06T03:41:25;6.30;99.90
27540;DHT22;15906;52.046;4.724;2024-03-06T03:43:51;6.30;99.90
27540;DHT22;15906;52.046;4.724;2024-03-06T03:46:16;6.30;99.90
27540;DHT22;15906;52.046;4.724;2024-03-06T03:48:42;6.30;99.90
27540;DHT22;15906;52.046;4.724;2024-03-06T03:51:08;6.30;99.90
27540;DHT22;15906;52.046;4.724;2024-03-06T03:53:34;6.30;99.90
27540;DHT22;15906;52.046;4.724;2024-03-06T03:56:00;6.30;99.90
27540;DHT22;15906;52.046;4.724;2024-03-06T03:58:26;6.30;99.90
27540;DHT22;15906;52.046;4.724;2024-03-06T04:00:51;6.30;99.90
27540;DHT22;15906;52.046;4.724;2024-03-06T04:03:19;6.30;99.90
27540;DHT22;15906;52.046;4.724;2024-03-06T04:05:48;6.30;99.90
27540;DHT22;15906;52.046;4.724;2024-03-06T04:08:14;6.30;99.90
27540;DHT22;15906;52.046;4.724;2024-03-06T04:10:42;6.30;99.90
27540;DHT22;15906;52.046;4.724;2024-03-06T04:13:10;6.30;99.90
27540;DHT22;15906;52.046;4.724;2024-03-06T04:15:36;6.30;99.90
27540;DHT22;15906;52.046;4.724;2024-03-06T04:18:01;6.30;99.90
27540;DHT22;15906;52.046;4.724;2024-03-06T04:20:27;6.20;99.90
27540;DHT22;15906;52.046;4.724;2024-03-06T04:22:53;6.20;99.90
27540;DHT22;15906;52.046;4.724;2024-03-06T04:25:18;6.20;99.90
27540;DHT22;15906;52.046;4.724;2024-03-06T04:27:44;6.20;99.90
27540;DHT22;15906;52.046;4.724;2024-03-06T04:30:10;6.10;99.90
27540;DHT22;15906;52.046;4.724;2024-03-06T04:32:36;6.10;99.90
27540;DHT22;15906;52.046;4.724;2024-03-06T04:35:01;6.00;99.90
27540;DHT22;15906;52.046;4.724;2024-03-06T04:37:27;6.00;99.90
27540;DHT22;15906;52.046;4.724;2024-03-06T04:39:54;6.00;99.90
27540;DHT22;15906;52.046;4.724;2024-03-06T04:42:20;5.90;99.90
27540;DHT22;15906;52.046;4.724;2024-03-06T04:44:45;5.90;99.90
27540;DHT22;15906;52.046;4.724;2024-03-06T04:47:11;5.90;99.90
27540;DHT22;15906;52.046;4.724;2024-03-06T04:49:36;5.90;99.90
27540;DHT22;15906;52.046;4.724;2024-03-06T04:52:02;5.90;99.90
27540;DHT22;15906;52.046;4.724;2024-03-06T04:54:28;5.80;99.90
27540;DHT22;15906;52.046;4.724;2024-03-06T04:56:54;5.80;99.90
27540;DHT22;15906;52.046;4.724;2024-03-06T04:59:20;5.70;99.90
27540;DHT22;15906;52.046;4.724;2024-03-06T05:01:46;5.80;99.90
27540;DHT22;15906;52.046;4.724;2024-03-06T05:04:11;5.70;99.90
27540;DHT22;15906;52.046;4.724;2024-03-06T05:06:37;5.70;99.90
27540;DHT22;15906;52.046;4.724;2024-03-06T05:09:03;5.70;99.90
27540;DHT22;15906;52.046;4.724;2024-03-06T05:11:29;5.60;99.90
27540;DHT22;15906;52.046;4.724;2024-03-06T05:13:57;5.60;99.90
27540;DHT22;15906;52.046;4.724;2024-03-06T05:16:23;5.60;99.90
27540;DHT22;15906;52.046;4.724;2024-03-06T05:18:49;5.60;99.90
27540;DHT22;15906;52.046;4.724;2024-03-06T05:21:15;5.60;99.90
27540;DHT22;15906;52.046;4.724;2024-03-06T05:23:41;5.50;99.90
27540;DHT22;15906;52.046;4.724;2024-03-06T05:26:06;5.50;99.90
27540;DHT22;15906;52.046;4.724;2024-03-06T05:28:33;5.50;99.90
27540;DHT22;15906;52.046;4.724;2024-03-06T05:30:58;5.50;99.90
27540;DHT22;15906;52.046;4.724;2024-03-06T05:33:26;5.50;99.90
27540;DHT22;15906;52.046;4.724;2024-03-06T05:35:53;5.50;99.90
27540;DHT22;15906;52.046;4.724;2024-03-06T05:38:19;5.50;99.90
27540;DHT22;15906;52.046;4.724;2024-03-06T05:40:44;5.50;99.90
27540;DHT22;15906;52.046;4.724;2024-03-06T05:43:10;5.40;99.90
27540;DHT22;15906;52.046;4.724;2024-03-06T05:45:36;5.40;99.90
27540;DHT22;15906;52.046;4.724;2024-03-06T05:48:02;5.20;99.90
27540;DHT22;15906;52.046;4.724;2024-03-06T05:50:29;5.10;99.90
27540;DHT22;15906;52.046;4.724;2024-03-06T05:52:55;5.10;99.90
27540;DHT22;15906;52.046;4.724;2024-03-06T05:55:20;5.20;99.90
27540;DHT22;15906;52.046;4.724;2024-03-06T05:57:46;5.10;99.90
27540;DHT22;15906;52.046;4.724;2024-03-06T06:00:13;5.00;99.90
27540;DHT22;15906;52.046;4.724;2024-03-06T06:02:39;4.90;99.90
27540;DHT22;15906;52.046;4.724;2024-03-06T06:05:05;4.80;99.90
27540;DHT22;15906;52.046;4.724;2024-03-06T06:07:32;4.70;99.90
27540;DHT22;15906;52.046;4.724;2024-03-06T06:09:58;4.70;99.90
27540;DHT22;15906;52.046;4.724;2024-03-06T06:12:23;4.70;99.90
27540;DHT22;15906;52.046;4.724;2024-03-06T06:14:49;4.60;99.90
27540;DHT22;15906;52.046;4.724;2024-03-06T06:17:14;4.60;99.90
27540;DHT22;15906;52.046;4.724;2024-03-06T06:19:42;4.50;99.90
27540;DHT22;15906;52.046;4.724;2024-03-06T06:22:09;4.50;99.90
27540;DHT22;15906;52.046;4.724;2024-03-06T06:24:38;4.60;99.90
27540;DHT22;15906;52.046;4.724;2024-03-06T06:27:04;4.60;99.90
27540;DHT22;15906;52.046;4.724;2024-03-06T06:29:30;4.60;99.90
27540;DHT22;15906;52.046;4.724;2024-03-06T06:31:56;4.60;99.90
27540;DHT22;15906;52.046;4.724;2024-03-06T06:34:22;4.60;99.90
27540;DHT22;15906;52.046;4.724;2024-03-06T06:36:48;4.60;99.90
27540;DHT22;15906;52.046;4.724;2024-03-06T06:39:14;4.50;99.90
27540;DHT22;15906;52.046;4.724;2024-03-06T06:41:39;4.50;99.90
27540;DHT22;15906;52.046;4.724;2024-03-06T06:44:05;4.40;99.90
27540;DHT22;15906;52.046;4.724;2024-03-06T06:46:30;4.50;99.90
27540;DHT22;15906;52.046;4.724;2024-03-06T06:48:56;4.50;99.90
27540;DHT22;15906;52.046;4.724;2024-03-06T06:51:22;4.60;99.90
27540;DHT22;15906;52.046;4.724;2024-03-06T06:53:48;4.60;99.90
27540;DHT22;15906;52.046;4.724;2024-03-06T06:56:14;4.70;99.90
27540;DHT22;15906;52.046;4.724;2024-03-06T06:58:39;4.70;99.90
27540;DHT22;15906;52.046;4.724;2024-03-06T07:01:08;4.70;99.90
27540;DHT22;15906;52.046;4.724;2024-03-06T07:03:33;4.70;99.90
27540;DHT22;15906;52.046;4.724;2024-03-06T07:05:59;4.70;99.90
27540;DHT22;15906;52.046;4.724;2024-03-06T07:08:24;4.60;99.90
27540;DHT22;15906;52.046;4.724;2024-03-06T07:10:50;4.60;99.90
27540;DHT22;15906;52.046;4.724;2024-03-06T07:13:18;4.60;99.90
27540;DHT22;15906;52.046;4.724;2024-03-06T07:15:44;4.50;99.90
27540;DHT22;15906;52.046;4.724;2024-03-06T07:18:09;4.50;99.90
27540;DHT22;15906;52.046;4.724;2024-03-06T07:20:35;4.50;99.90
27540;DHT22;15906;52.046;4.724;2024-03-06T07:23:01;4.50;99.90
27540;DHT22;15906;52.046;4.724;2024-03-06T07:25:26;4.60;99.90
27540;DHT22;15906;52.046;4.724;2024-03-06T07:27:52;4.70;99.90
27540;DHT22;15906;52.046;4.724;2024-03-06T07:30:18;4.80;99.90
27540;DHT22;15906;52.046;4.724;2024-03-06T07:32:43;4.80;99.90
27540;DHT22;15906;52.046;4.724;2024-03-06T07:35:09;4.90;99.90
27540;DHT22;15906;52.046;4.724;2024-03-06T07:37:35;4.90;99.90
27540;DHT22;15906;52.046;4.724;2024-03-06T07:40:01;5.00;99.90
27540;DHT22;15906;52.046;4.724;2024-03-06T07:42:26;5.00;99.90
27540;DHT22;15906;52.046;4.724;2024-03-06T07:44:52;5.10;99.90
27540;DHT22;15906;52.046;4.724;2024-03-06T07:47:18;5.20;99.90
27540;DHT22;15906;52.046;4.724;2024-03-06T07:49:44;5.20;99.90
27540;DHT22;15906;52.046;4.724;2024-03-06T07:52:10;5.30;99.90
27540;DHT22;15906;52.046;4.724;2024-03-06T07:54:35;5.40;99.90
27540;DHT22;15906;52.046;4.724;2024-03-06T07:57:01;5.50;99.90
27540;DHT22;15906;52.046;4.724;2024-03-06T07:59:27;5.60;99.90
27540;DHT22;15906;52.046;4.724;2024-03-06T08:01:52;5.60;99.90
27540;DHT22;15906;52.046;4.724;2024-03-06T08:04:18;5.70;99.90
27540;DHT22;15906;52.046;4.724;2024-03-06T08:06:44;5.80;99.90
27540;DHT22;15906;52.046;4.724;2024-03-06T08:09:09;6.00;99.90
27540;DHT22;15906;52.046;4.724;2024-03-06T08:11:35;6.10;99.90
27540;DHT22;15906;52.046;4.724;2024-03-06T08:14:01;6.20;99.90
27540;DHT22;15906;52.046;4.724;2024-03-06T08:16:27;6.30;99.90
27540;DHT22;15906;52.046;4.724;2024-03-06T08:18:54;6.30;99.90
27540;DHT22;15906;52.046;4.724;2024-03-06T08:21:20;6.40;99.90
27540;DHT22;15906;52.046;4.724;2024-03-06T08:23:45;6.60;99.90
27540;DHT22;15906;52.046;4.724;2024-03-06T08:26:13;6.70;99.90
27540;DHT22;15906;52.046;4.724;2024-03-06T08:28:38;6.70;99.90
27540;DHT22;15906;52.046;4.724;2024-03-06T08:31:04;6.80;99.90
27540;DHT22;15906;52.046;4.724;2024-03-06T08:33:29;6.90;99.90
27540;DHT22;15906;52.046;4.724;2024-03-06T08:35:55;6.90;99.90
27540;DHT22;15906;52.046;4.724;2024-03-06T08:38:20;7.10;99.90
27540;DHT22;15906;52.046;4.724;2024-03-06T08:40:46;7.10;99.90
27540;DHT22;15906;52.046;4.724;2024-03-06T08:43:12;7.10;99.90
27540;DHT22;15906;52.046;4.724;2024-03-06T08:45:38;7.10;99.90
27540;DHT22;15906;52.046;4.724;2024-03-06T08:48:04;6.90;99.90
27540;DHT22;15906;52.046;4.724;2024-03-06T08:50:31;6.90;99.90
27540;DHT22;15906;52.046;4.724;2024-03-06T08:52:56;6.90;99.90
27540;DHT22;15906;52.046;4.724;2024-03-06T08:55:22;6.90;99.90
27540;DHT22;15906;52.046;4.724;2024-03-06T08:57:47;6.90;99.90
27540;DHT22;15906;52.046;4.724;2024-03-06T09:00:13;6.80;99.90
27540;DHT22;15906;52.046;4.724;2024-03-06T09:02:40;7.00;99.90
27540;DHT22;15906;52.046;4.724;2024-03-06T09:05:06;7.10;99.90
27540;DHT22;15906;52.046;4.724;2024-03-06T09:07:32;7.30;99.90
27540;DHT22;15906;52.046;4.724;2024-03-06T09:10:03;7.60;99.90
27540;DHT22;15906;52.046;4.724;2024-03-06T09:12:31;7.80;99.90
27540;DHT22;15906;52.046;4.724;2024-03-06T09:14:56;7.90;99.90
27540;DHT22;15906;52.046;4.724;2024-03-06T09:17:22;8.10;99.90
27540;DHT22;15906;52.046;4.724;2024-03-06T09:19:47;8.10;99.90
27540;DHT22;15906;52.046;4.724;2024-03-06T09:22:13;8.20;99.90
27540;DHT22;15906;52.046;4.724;2024-03-06T09:24:39;8.40;99.90
27540;DHT22;15906;52.046;4.724;2024-03-06T09:27:04;9.00;99.90
27540;DHT22;15906;52.046;4.724;2024-03-06T09:29:30;9.20;99.90
27540;DHT22;15906;52.046;4.724;2024-03-06T09:31:56;9.20;99.90
27540;DHT22;15906;52.046;4.724;2024-03-06T09:34:21;9.60;99.90
27540;DHT22;15906;52.046;4.724;2024-03-06T09:36:49;9.70;99.90
27540;DHT22;15906;52.046;4.724;2024-03-06T09:39:18;10.00;99.90
27540;DHT22;15906;52.046;4.724;2024-03-06T09:41:53;10.50;99.90
27540;DHT22;15906;52.046;4.724;2024-03-06T09:44:20;10.70;99.90
27540;DHT22;15906;52.046;4.724;2024-03-06T09:46:47;10.70;99.90
27540;DHT22;15906;52.046;4.724;2024-03-06T09:49:15;11.00;99.90
27540;DHT22;15906;52.046;4.724;2024-03-06T09:51:46;11.40;99.90
27540;DHT22;15906;52.046;4.724;2024-03-06T09:54:13;11.60;99.90
27540;DHT22;15906;52.046;4.724;2024-03-06T09:56:45;11.90;99.90
27540;DHT22;15906;52.046;4.724;2024-03-06T09:59:12;12.00;99.90
27540;DHT22;15906;52.046;4.724;2024-03-06T10:04:20;12.10;99.90
27540;DHT22;15906;52.046;4.724;2024-03-06T10:06:46;12.10;99.90
27540;DHT22;15906;52.046;4.724;2024-03-06T10:09:12;12.50;99.90
27540;DHT22;15906;52.046;4.724;2024-03-06T10:11:41;12.80;99.90
27540;DHT22;15906;52.046;4.724;2024-03-06T10:14:08;12.50;99.90
27540;DHT22;15906;52.046;4.724;2024-03-06T10:16:35;12.70;99.90
27540;DHT22;15906;52.046;4.724;2024-03-06T10:19:17;13.00;99.90
27540;DHT22;15906;52.046;4.724;2024-03-06T10:21:44;13.00;99.90
27540;DHT22;15906;52.046;4.724;2024-03-06T10:24:20;13.20;99.90
27540;DHT22;15906;52.046;4.724;2024-03-06T10:26:46;13.70;99.90
27540;DHT22;15906;52.046;4.724;2024-03-06T10:29:17;13.80;99.90
27540;DHT22;15906;52.046;4.724;2024-03-06T10:31:54;13.80;99.90
27540;DHT22;15906;52.046;4.724;2024-03-06T10:34:21;13.50;99.90
27540;DHT22;15906;52.046;4.724;2024-03-06T10:39:21;13.80;99.90
27540;DHT22;15906;52.046;4.724;2024-03-06T10:41:52;13.90;99.90
27540;DHT22;15906;52.046;4.724;2024-03-06T10:44:26;13.70;99.90
27540;DHT22;15906;52.046;4.724;2024-03-06T10:46:58;13.70;99.90
27540;DHT22;15906;52.046;4.724;2024-03-06T10:49:26;13.80;99.90
27540;DHT22;15906;52.046;4.724;2024-03-06T10:51:57;13.80;99.90
27540;DHT22;15906;52.046;4.724;2024-03-06T10:54:24;13.80;99.90
27540;DHT22;15906;52.046;4.724;2024-03-06T10:56:51;13.60;99.90
27540;DHT22;15906;52.046;4.724;2024-03-06T10:59:19;13.30;99.90
27540;DHT22;15906;52.046;4.724;2024-03-06T11:01:47;13.10;99.90
27540;DHT22;15906;52.046;4.724;2024-03-06T11:04:13;12.80;99.90
27540;DHT22;15906;52.046;4.724;2024-03-06T11:06:40;12.30;99.90
27540;DHT22;15906;52.046;4.724;2024-03-06T11:09:07;11.90;99.90
27540;DHT22;15906;52.046;4.724;2024-03-06T11:11:47;11.70;99.90
27540;DHT22;15906;52.046;4.724;2024-03-06T11:14:13;11.60;99.90
27540;DHT22;15906;52.046;4.724;2024-03-06T11:17:08;11.60;99.90
27540;DHT22;15906;52.046;4.724;2024-03-06T11:28:23;11.10;99.90
27540;DHT22;15906;52.046;4.724;2024-03-06T11:31:01;11.20;99.90
27540;DHT22;15906;52.046;4.724;2024-03-06T11:33:40;11.20;99.90
27540;DHT22;15906;52.046;4.724;2024-03-06T11:36:18;11.20;99.90
27540;DHT22;15906;52.046;4.724;2024-03-06T11:39:04;11.30;99.90
27540;DHT22;15906;52.046;4.724;2024-03-06T11:41:51;11.70;99.90
27540;DHT22;15906;52.046;4.724;2024-03-06T11:44:18;11.90;99.90
27540;DHT22;15906;52.046;4.724;2024-03-06T11:46:57;11.90;99.90
27540;DHT22;15906;52.046;4.724;2024-03-06T11:49:24;11.90;99.90
27540;DHT22;15906;52.046;4.724;2024-03-06T11:51:54;12.00;99.90
27540;DHT22;15906;52.046;4.724;2024-03-06T11:54:20;11.80;99.90
27540;DHT22;15906;52.046;4.724;2024-03-06T11:56:55;11.60;99.90
27540;DHT22;15906;52.046;4.724;2024-03-06T12:01:51;11.70;99.90
27540;DHT22;15906;52.046;4.724;2024-03-06T12:04:19;12.30;99.90
27540;DHT22;15906;52.046;4.724;2024-03-06T12:06:44;12.90;99.90
27540;DHT22;15906;52.046;4.724;2024-03-06T12:09:10;12.70;99.90
27540;DHT22;15906;52.046;4.724;2024-03-06T12:11:37;12.90;99.90
27540;DHT22;15906;52.046;4.724;2024-03-06T12:14:03;13.00;99.90
27540;DHT22;15906;52.046;4.724;2024-03-06T12:16:28;12.90;99.90
27540;DHT22;15906;52.046;4.724;2024-03-06T12:18:55;12.50;99.90
27540;DHT22;15906;52.046;4.724;2024-03-06T12:21:32;12.20;99.90
27540;DHT22;15906;52.046;4.724;2024-03-06T12:24:04;11.90;99.90
27540;DHT22;15906;52.046;4.724;2024-03-06T12:26:30;12.30;99.90
27540;DHT22;15906;52.046;4.724;2024-03-06T12:29:11;12.80;99.90
27540;DHT22;15906;52.046;4.724;2024-03-06T12:31:38;13.30;99.90
27540;DHT22;15906;52.046;4.724;2024-03-06T12:34:05;13.30;99.90
27540;DHT22;15906;52.046;4.724;2024-03-06T12:36:32;13.10;99.90
27540;DHT22;15906;52.046;4.724;2024-03-06T12:38:59;13.30;99.90
27540;DHT22;15906;52.046;4.724;2024-03-06T12:41:26;13.60;99.90
27540;DHT22;15906;52.046;4.724;2024-03-06T12:43:52;13.70;99.90
27540;DHT22;15906;52.046;4.724;2024-03-06T12:46:18;13.30;99.90
27540;DHT22;15906;52.046;4.724;2024-03-06T12:48:44;13.00;99.90
27540;DHT22;15906;52.046;4.724;2024-03-06T12:51:11;13.20;99.90
27540;DHT22;15906;52.046;4.724;2024-03-06T12:53:36;13.30;99.90
27540;DHT22;15906;52.046;4.724;2024-03-06T12:56:02;13.60;99.90
27540;DHT22;15906;52.046;4.724;2024-03-06T12:58:28;13.70;99.90
27540;DHT22;15906;52.046;4.724;2024-03-06T13:00:53;13.60;99.90
27540;DHT22;15906;52.046;4.724;2024-03-06T13:03:20;13.30;99.90
27540;DHT22;15906;52.046;4.724;2024-03-06T13:05:45;12.80;99.90
27540;DHT22;15906;52.046;4.724;2024-03-06T13:08:12;12.50;99.90
27540;DHT22;15906;52.046;4.724;2024-03-06T13:10:41;12.70;99.90
27540;DHT22;15906;52.046;4.724;2024-03-06T13:13:06;12.90;99.90
27540;DHT22;15906;52.046;4.724;2024-03-06T13:15:33;12.60;99.90
27540;DHT22;15906;52.046;4.724;2024-03-06T13:18:02;12.40;99.90
27540;DHT22;15906;52.046;4.724;2024-03-06T13:20:29;12.20;99.90
27540;DHT22;15906;52.046;4.724;2024-03-06T13:22:55;12.20;99.90
27540;DHT22;15906;52.046;4.724;2024-03-06T13:25:21;12.50;99.90
27540;DHT22;15906;52.046;4.724;2024-03-06T13:27:47;12.80;99.90
27540;DHT22;15906;52.046;4.724;2024-03-06T13:30:13;12.70;99.90
27540;DHT22;15906;52.046;4.724;2024-03-06T13:32:38;12.50;99.90
27540;DHT22;15906;52.046;4.724;2024-03-06T13:35:05;12.30;99.90
27540;DHT22;15906;52.046;4.724;2024-03-06T13:37:32;12.30;99.90
27540;DHT22;15906;52.046;4.724;2024-03-06T13:39:59;12.50;99.90
27540;DHT22;15906;52.046;4.724;2024-03-06T13:42:27;12.90;99.90
27540;DHT22;15906;52.046;4.724;2024-03-06T13:44:52;12.90;99.90
27540;DHT22;15906;52.046;4.724;2024-03-06T13:47:19;13.20;99.90
27540;DHT22;15906;52.046;4.724;2024-03-06T13:49:44;12.90;99.90
27540;DHT22;15906;52.046;4.724;2024-03-06T13:52:10;13.00;99.90
27540;DHT22;15906;52.046;4.724;2024-03-06T13:54:40;12.90;99.90
27540;DHT22;15906;52.046;4.724;2024-03-06T13:57:07;13.00;99.90
27540;DHT22;15906;52.046;4.724;2024-03-06T13:59:33;12.90;99.90
27540;DHT22;15906;52.046;4.724;2024-03-06T14:01:59;13.00;99.90
27540;DHT22;15906;52.046;4.724;2024-03-06T14:04:26;13.00;99.90
27540;DHT22;15906;52.046;4.724;2024-03-06T14:06:51;12.70;99.90
27540;DHT22;15906;52.046;4.724;2024-03-06T14:09:17;12.60;99.90
27540;DHT22;15906;52.046;4.724;2024-03-06T14:11:43;12.70;99.90
27540;DHT22;15906;52.046;4.724;2024-03-06T14:14:09;12.60;99.90
27540;DHT22;15906;52.046;4.724;2024-03-06T14:16:35;12.70;99.90
27540;DHT22;15906;52.046;4.724;2024-03-06T14:19:01;12.60;99.90
27540;DHT22;15906;52.046;4.724;2024-03-06T14:21:26;12.50;99.90
27540;DHT22;15906;52.046;4.724;2024-03-06T14:23:52;12.40;99.90
27540;DHT22;15906;52.046;4.724;2024-03-06T14:26:18;12.50;99.90
27540;DHT22;15906;52.046;4.724;2024-03-06T14:28:43;12.40;99.90
27540;DHT22;15906;52.046;4.724;2024-03-06T14:31:09;12.40;99.90
27540;DHT22;15906;52.046;4.724;2024-03-06T14:33:39;12.20;99.90
27540;DHT22;15906;52.046;4.724;2024-03-06T14:36:04;12.30;99.90
27540;DHT22;15906;52.046;4.724;2024-03-06T14:38:30;12.20;99.90
27540;DHT22;15906;52.046;4.724;2024-03-06T14:40:56;12.20;99.90
27540;DHT22;15906;52.046;4.724;2024-03-06T14:43:21;12.10;99.90
27540;DHT22;15906;52.046;4.724;2024-03-06T14:45:47;12.00;99.90
27540;DHT22;15906;52.046;4.724;2024-03-06T14:48:12;11.90;99.90
27540;DHT22;15906;52.046;4.724;2024-03-06T14:50:38;12.00;99.90
27540;DHT22;15906;52.046;4.724;2024-03-06T14:53:03;11.90;99.90
27540;DHT22;15906;52.046;4.724;2024-03-06T14:55:30;11.90;99.90
27540;DHT22;15906;52.046;4.724;2024-03-06T14:57:56;11.90;99.90
27540;DHT22;15906;52.046;4.724;2024-03-06T15:00:21;11.70;99.90
27540;DHT22;15906;52.046;4.724;2024-03-06T15:02:47;11.60;99.90
27540;DHT22;15906;52.046;4.724;2024-03-06T15:05:13;11.50;99.90
27540;DHT22;15906;52.046;4.724;2024-03-06T15:07:39;11.50;99.90
27540;DHT22;15906;52.046;4.724;2024-03-06T15:10:05;11.40;99.90
27540;DHT22;15906;52.046;4.724;2024-03-06T15:12:31;11.30;99.90
27540;DHT22;15906;52.046;4.724;2024-03-06T15:14:57;11.30;99.90
27540;DHT22;15906;52.046;4.724;2024-03-06T15:17:24;11.30;99.90
27540;DHT22;15906;52.046;4.724;2024-03-06T15:19:51;11.20;99.90
27540;DHT22;15906;52.046;4.724;2024-03-06T15:22:17;11.20;99.90
27540;DHT22;15906;52.046;4.724;2024-03-06T15:24:43;11.30;99.90
27540;DHT22;15906;52.046;4.724;2024-03-06T15:27:15;11.30;99.90
27540;DHT22;15906;52.046;4.724;2024-03-06T15:29:41;11.40;99.90
27540;DHT22;15906;52.046;4.724;2024-03-06T15:32:07;11.40;99.90
27540;DHT22;15906;52.046;4.724;2024-03-06T15:34:33;11.40;99.90
27540;DHT22;15906;52.046;4.724;2024-03-06T15:36:58;11.30;99.90
27540;DHT22;15906;52.046;4.724;2024-03-06T15:39:25;11.30;99.90
27540;DHT22;15906;52.046;4.724;2024-03-06T15:41:50;11.30;99.90
27540;DHT22;15906;52.046;4.724;2024-03-06T15:44:16;11.30;99.90
27540;DHT22;15906;52.046;4.724;2024-03-06T15:46:42;11.40;99.90
27540;DHT22;15906;52.046;4.724;2024-03-06T15:49:19;11.50;99.90
27540;DHT22;15906;52.046;4.724;2024-03-06T15:51:50;11.60;99.90
27540;DHT22;15906;52.046;4.724;2024-03-06T15:54:16;11.60;99.90